Time;durP1;ratioP1;P1;durP2;ratioP2;P2;SDS_P1;SDS_P2;PMS_P1;PMS_P2;Temp;Humidity;BMP_temperature;BMP_pressure;BME280_temperature;BME280_humidity;BME280_pressure;Samples;Min_cycle;Max_cycle;Signal;HPM_P1;HPM_P2
2023/05/28 00:01:15;;;;;;;6.70;2.10;;;;;;;9.53;51.25;100677.29;105651;1258;62066;-66
2023/05/28 00:04:03;;;;;;;6.60;1.90;;;;;;;9.54;50.81;100672.64;105600;1259;74966;-66
2023/05/28 00:06:55;;;;;;;8.10;1.90;;;;;;;9.56;50.66;100672.50;105630;1259;68413;-66
2023/05/28 00:09:43;;;;;;;6.80;2.10;;;;;;;9.58;50.16;100669.93;105771;1254;70197;-68
2023/05/28 00:12:31;;;;;;;7.10;2.20;;;;;;;9.60;50.08;100668.19;105738;1262;60409;-67
2023/05/28 00:15:19;;;;;;;6.30;1.90;;;;;;;9.63;49.72;100665.51;105786;1255;60347;-66
2023/05/28 00:18:11;;;;;;;7.80;2.00;;;;;;;9.67;49.38;100665.94;105788;1262;72485;-68
2023/05/28 00:21:00;;;;;;;8.10;2.30;;;;;;;9.70;49.28;100666.26;105672;1254;67447;-68
2023/05/28 00:23:49;;;;;;;6.70;1.90;;;;;;;9.72;49.77;100664.43;105579;1257;71006;-66
2023/05/28 00:26:37;;;;;;;7.20;2.00;;;;;;;9.70;49.74;100665.03;105663;1256;60486;-68
2023/05/28 00:29:26;;;;;;;6.80;1.80;;;;;;;9.68;49.94;100661.60;105647;1255;60887;-69
2023/05/28 00:32:14;;;;;;;8.20;2.10;;;;;;;9.69;49.39;100661.21;105715;1259;73924;-69
2023/05/28 00:35:03;;;;;;;5.90;1.60;;;;;;;9.68;50.04;100659.50;105641;1258;68099;-68
2023/05/28 00:37:52;;;;;;;6.60;2.00;;;;;;;9.64;50.23;100657.30;106053;1257;72505;-69
2023/05/28 00:40:44;;;;;;;12.10;2.90;;;;;;;9.60;50.47;100660.91;105956;1253;60473;-70
2023/05/28 00:43:32;;;;;;;8.10;2.00;;;;;;;9.54;50.91;100657.05;105693;1253;60319;-70
2023/05/28 00:46:23;;;;;;;7.40;2.00;;;;;;;9.46;51.42;100655.77;105768;1254;72567;-69
2023/05/28 00:49:12;;;;;;;8.30;2.40;;;;;;;9.36;52.01;100657.79;105814;1253;68181;-67
2023/05/28 00:52:02;;;;;;;7.80;2.60;;;;;;;9.27;52.52;100658.02;105674;1253;72016;-68
2023/05/28 00:54:50;;;;;;;7.20;2.20;;;;;;;9.17;53.40;100654.89;105875;1254;60623;-69
2023/05/28 00:57:39;;;;;;;10.60;3.00;;;;;;;9.09;54.43;100659.70;105737;1253;61402;-68
2023/05/28 01:00:27;;;;;;;8.70;2.80;;;;;;;9.00;54.64;100655.45;105687;1253;73501;-68
2023/05/28 01:03:16;;;;;;;8.00;2.90;;;;;;;8.91;55.49;100649.79;105653;1253;68010;-66
2023/05/28 01:06:11;;;;;;;8.80;3.30;;;;;;;8.83;56.37;100644.66;105517;1260;74222;-67
2023/05/28 01:08:59;;;;;;;10.60;3.80;;;;;;;8.74;56.86;100645.00;105572;1262;60473;-68
2023/05/28 01:11:51;;;;;;;10.60;3.40;;;;;;;8.65;57.80;100641.11;105692;1253;60505;-67
2023/05/28 01:14:39;;;;;;;8.20;3.10;;;;;;;8.57;58.16;100639.44;105796;1253;73506;-68
2023/05/28 01:17:28;;;;;;;8.70;3.30;;;;;;;8.53;58.48;100641.52;105649;1254;66334;-69
2023/05/28 01:20:18;;;;;;;9.80;3.20;;;;;;;8.46;58.58;100638.00;105645;1253;73393;-69
2023/05/28 01:23:16;;;;;;;8.50;2.70;;;;;;;8.40;58.77;100634.98;105718;1254;61140;-68
2023/05/28 01:26:05;;;;;;;9.10;3.10;;;;;;;8.33;58.66;100636.58;105631;1260;60335;-69
2023/05/28 01:28:54;;;;;;;8.10;2.50;;;;;;;8.27;58.96;100637.46;105855;1256;73910;-67
2023/05/28 01:31:44;;;;;;;8.10;2.60;;;;;;;8.23;59.13;100634.02;105491;1253;67878;-68
2023/05/28 01:34:32;;;;;;;8.90;3.00;;;;;;;8.18;59.22;100633.23;105725;1261;72825;-67
2023/05/28 01:37:21;;;;;;;8.30;2.90;;;;;;;8.16;59.05;100633.21;105771;1259;60297;-69
2023/05/28 01:40:11;;;;;;;9.10;3.30;;;;;;;8.12;59.06;100630.09;105672;1255;60527;-70
2023/05/28 01:43:01;;;;;;;10.30;2.70;;;;;;;8.08;59.27;100628.02;105688;1253;73925;-69
2023/05/28 01:45:50;;;;;;;9.60;2.70;;;;;;;8.05;59.32;100628.91;105734;1259;67568;-69
2023/05/28 01:48:39;;;;;;;7.20;2.90;;;;;;;8.02;59.22;100631.66;105792;1253;72746;-69
2023/05/28 01:51:28;;;;;;;8.30;3.60;;;;;;;7.99;59.25;100629.04;105584;1261;1003661;-66
2023/05/28 01:54:18;;;;;;;8.20;2.80;;;;;;;7.96;59.59;100627.96;105818;1254;61497;-70
2023/05/28 01:57:06;;;;;;;14.20;3.10;;;;;;;7.95;59.53;100626.13;105555;1259;73904;-70
2023/05/28 01:59:54;;;;;;;7.90;2.50;;;;;;;7.92;59.69;100620.61;105560;1253;66943;-70
2023/05/28 02:02:43;;;;;;;7.80;2.50;;;;;;;7.91;59.74;100613.77;105805;1254;71075;-68
2023/05/28 02:05:35;;;;;;;8.50;2.70;;;;;;;7.90;59.61;100613.33;105689;1259;60459;-68
2023/05/28 02:08:23;;;;;;;8.20;2.50;;;;;;;7.88;59.72;100612.73;105720;1260;60449;-65
2023/05/28 02:11:11;;;;;;;9.10;2.50;;;;;;;7.88;59.83;100606.58;105443;1260;74833;-68
2023/05/28 02:14:01;;;;;;;8.00;2.70;;;;;;;7.87;59.75;100604.66;105613;1253;66773;-70
2023/05/28 02:16:49;;;;;;;7.50;2.50;;;;;;;7.86;59.73;100595.90;105506;1261;72660;-70
2023/05/28 02:19:38;;;;;;;6.90;2.40;;;;;;;7.84;59.62;100591.73;105569;1254;60425;-68
2023/05/28 02:22:27;;;;;;;7.90;2.20;;;;;;;7.83;59.97;100599.06;105425;1253;60407;-68
2023/05/28 02:25:15;;;;;;;7.30;2.60;;;;;;;7.81;59.85;100597.06;105568;1254;72063;-68
2023/05/28 02:28:03;;;;;;;7.90;2.60;;;;;;;7.79;59.92;100595.38;105824;1259;68623;-68
2023/05/28 02:30:52;;;;;;;9.70;2.60;;;;;;;7.76;60.10;100598.58;105714;1254;72710;-68
2023/05/28 02:33:41;;;;;;;8.00;2.60;;;;;;;7.73;60.22;100594.13;105490;1254;60443;-69
2023/05/28 02:36:30;;;;;;;7.30;2.20;;;;;;;7.69;60.37;100591.89;105782;1254;60469;-69
2023/05/28 02:39:18;;;;;;;6.80;2.20;;;;;;;7.66;60.77;100598.59;105446;1253;72862;-68
2023/05/28 02:42:07;;;;;;;7.80;2.40;;;;;;;7.65;60.72;100594.76;105868;1253;66884;-68
2023/05/28 02:44:58;;;;;;;6.70;2.20;;;;;;;7.64;60.66;100596.77;105732;1253;72712;-68
2023/05/28 02:47:47;;;;;;;8.00;2.10;;;;;;;7.63;60.91;100595.21;105577;1262;60402;-68
2023/05/28 02:50:36;;;;;;;7.60;2.40;;;;;;;7.64;60.87;100596.23;105501;1257;60445;-67
2023/05/28 02:53:51;;;;;;;6.30;2.30;;;;;;;7.65;60.91;100599.54;105850;1254;72601;-67
2023/05/28 02:56:39;;;;;;;6.50;2.10;;;;;;;7.66;60.75;100599.13;105772;1253;66634;-68
2023/05/28 02:59:27;;;;;;;7.30;2.00;;;;;;;7.68;60.42;100599.02;105783;1260;71432;-67
2023/05/28 03:02:16;;;;;;;7.20;2.50;;;;;;;7.70;60.28;100592.20;105633;1260;60447;-66
2023/05/28 03:05:05;;;;;;;7.00;2.30;;;;;;;7.73;60.03;100584.45;105567;1259;60357;-67
2023/05/28 03:07:53;;;;;;;7.90;2.20;;;;;;;7.76;59.95;100584.45;105690;1260;73496;-67
2023/05/28 03:10:41;;;;;;;6.90;2.50;;;;;;;7.79;59.73;100582.86;105592;1252;66401;-68
2023/05/28 03:13:29;;;;;;;6.70;2.20;;;;;;;7.83;59.61;100583.88;105691;1253;72702;-67
2023/05/28 03:16:18;;;;;;;7.30;2.40;;;;;;;7.86;59.52;100580.16;105867;1259;60468;-65
2023/05/28 03:19:06;;;;;;;7.40;2.20;;;;;;;7.91;59.38;100576.15;105584;1253;60346;-70
2023/05/28 03:21:54;;;;;;;7.50;2.90;;;;;;;7.96;59.31;100576.05;105967;1254;74071;-69
2023/05/28 03:24:44;;;;;;;7.80;2.50;;;;;;;8.00;59.27;100581.41;100402;1254;1015703;-69
2023/05/28 03:27:33;;;;;;;6.80;2.30;;;;;;;8.07;59.21;100574.88;105613;1253;71548;-68
2023/05/28 03:30:21;;;;;;;8.50;2.70;;;;;;;8.12;59.16;100572.96;105653;1259;60635;-68
2023/05/28 03:33:13;;;;;;;7.30;2.20;;;;;;;8.19;59.15;100568.15;105530;1254;60436;-69
2023/05/28 03:36:02;;;;;;;7.30;2.20;;;;;;;8.21;58.85;100562.37;105713;1254;73529;-66
2023/05/28 03:38:51;;;;;;;6.80;2.20;;;;;;;8.30;58.91;100571.19;105801;1253;66804;-65
2023/05/28 03:41:38;;;;;;;7.50;2.40;;;;;;;8.38;58.73;100570.77;105706;1254;73523;-68
2023/05/28 03:44:29;;;;;;;7.90;2.40;;;;;;;8.40;58.37;100560.73;105830;1259;60311;-69
2023/05/28 03:47:18;;;;;;;8.60;2.40;;;;;;;8.53;58.18;100569.66;105837;1262;60499;-68
2023/05/28 03:50:12;;;;;;;9.10;2.30;;;;;;;8.63;57.76;100566.09;106090;1257;72099;-71
2023/05/28 03:53:00;;;;;;;7.10;2.10;;;;;;;8.73;57.52;100563.16;106102;1259;68688;-72
2023/05/28 03:55:51;;;;;;;7.00;1.90;;;;;;;8.84;56.93;100564.95;105711;1260;73799;-70
2023/05/28 03:58:40;;;;;;;6.00;2.00;;;;;;;8.95;56.80;100560.39;105816;1254;60336;-72
2023/05/28 04:01:28;;;;;;;8.40;2.00;;;;;;;9.05;56.50;100560.84;105749;1254;60425;-73
2023/05/28 04:04:17;;;;;;;5.80;1.90;;;;;;;9.16;56.07;100559.41;105778;1254;73698;-71
2023/05/28 04:07:08;;;;;;;6.70;1.90;;;;;;;9.26;55.76;100560.02;105778;1256;66339;-71
2023/05/28 04:09:59;;;;;;;8.50;2.00;;;;;;;9.36;55.64;100558.96;105832;1253;71516;-73
2023/05/28 04:12:47;;;;;;;6.90;2.40;;;;;;;9.47;55.68;100559.02;105651;1254;60451;-72
2023/05/28 04:15:35;;;;;;;7.10;2.20;;;;;;;9.58;55.66;100554.59;105831;1253;60866;-71
2023/05/28 04:18:24;;;;;;;7.60;2.00;;;;;;;9.69;54.83;100552.95;105921;1259;72746;-73
2023/05/28 04:21:13;;;;;;;7.60;2.00;;;;;;;9.82;54.99;100552.61;105831;1259;66905;-71
2023/05/28 04:24:01;;;;;;;7.20;2.00;;;;;;;9.96;54.75;100555.28;105786;1261;73663;-71
2023/05/28 04:26:51;;;;;;;9.90;2.10;;;;;;;10.12;54.13;100554.02;105666;1254;60526;-71
2023/05/28 04:29:39;;;;;;;6.80;1.90;;;;;;;10.26;53.97;100551.26;106238;1254;60435;-71
2023/05/28 04:32:31;;;;;;;8.80;1.80;;;;;;;10.42;53.27;100554.63;106120;1254;73362;-73
2023/05/28 04:35:21;;;;;;;6.10;1.80;;;;;;;10.60;52.93;100553.58;106014;1259;67640;-71
2023/05/28 04:38:09;;;;;;;6.50;2.00;;;;;;;10.82;52.24;100550.23;105837;1256;73667;-73
2023/05/28 04:40:59;;;;;;;7.10;2.20;;;;;;;11.10;51.32;100548.80;105980;1255;60479;-71
2023/05/28 04:43:48;;;;;;;6.80;1.90;;;;;;;11.40;50.76;100549.13;105780;1259;60425;-71
2023/05/28 04:46:39;;;;;;;6.30;1.90;;;;;;;11.79;50.26;100541.82;105050;1259;1003527;-69
2023/05/28 04:49:27;;;;;;;6.40;1.80;;;;;;;12.27;49.27;100541.90;105913;1257;67893;-72
2023/05/28 04:52:16;;;;;;;7.50;2.20;;;;;;;12.77;47.95;100546.41;105696;1262;73769;-74
2023/05/28 04:55:07;;;;;;;7.00;2.40;;;;;;;13.34;46.98;100541.50;105617;1257;60515;-72
2023/05/28 04:57:55;;;;;;;7.00;2.00;;;;;;;13.97;45.32;100535.28;105722;1255;61124;-73
2023/05/28 05:00:45;;;;;;;7.60;1.90;;;;;;;14.49;44.29;100535.98;105943;1258;73254;-73
2023/05/28 05:03:33;;;;;;;6.80;2.10;;;;;;;15.01;43.31;100535.17;105693;1261;66386;-73
2023/05/28 05:06:22;;;;;;;8.40;2.00;;;;;;;15.51;41.89;100531.12;105680;1260;72942;-74
2023/05/28 05:09:10;;;;;;;8.40;1.70;;;;;;;15.93;40.85;100525.55;105712;1255;60500;-74
2023/05/28 05:11:58;;;;;;;7.80;1.90;;;;;;;16.33;40.30;100523.16;105790;1254;60422;-76
2023/05/28 05:14:47;;;;;;;6.90;2.00;;;;;;;16.81;39.46;100528.11;105646;1253;74490;-73
2023/05/28 05:17:35;;;;;;;8.10;1.80;;;;;;;17.42;38.82;100529.38;105713;1259;67899;-71
2023/05/28 05:20:24;;;;;;;7.70;1.80;;;;;;;18.04;37.26;100527.48;105691;1253;71133;-70
2023/05/28 05:23:13;;;;;;;8.60;2.10;;;;;;;18.62;35.88;100525.85;105745;1261;60450;-71
2023/05/28 05:26:04;;;;;;;5.70;1.90;;;;;;;19.08;34.98;100524.48;105729;1262;60437;-73
2023/05/28 05:28:53;;;;;;;6.40;2.10;;;;;;;19.61;33.97;100528.72;105706;1262;73641;-71
2023/05/28 05:31:42;;;;;;;6.40;1.90;;;;;;;19.95;32.73;100521.67;105636;1256;67920;-72
2023/05/28 05:34:32;;;;;;;9.70;2.10;;;;;;;20.54;32.08;100520.12;105524;1256;72990;-72
2023/05/28 05:37:39;;;;;;;8.40;2.10;;;;;;;21.06;31.14;100515.30;105906;1261;60500;-73
2023/05/28 05:40:47;;;;;;;5.20;1.60;;;;;;;21.65;30.85;100510.65;106118;1257;60368;-71
2023/05/28 05:43:58;;;;;;;8.50;1.90;;;;;;;22.44;29.24;100502.05;105536;1262;72860;-73
2023/05/28 05:46:48;;;;;;;7.90;1.80;;;;;;;22.70;28.35;100505.92;105321;1257;306381;-71
2023/05/28 05:49:36;;;;;;;8.30;1.70;;;;;;;22.66;28.20;100502.98;105588;1262;72709;-69
2023/05/28 05:52:25;;;;;;;8.00;1.50;;;;;;;22.87;28.16;100505.00;105521;1260;60453;-70
2023/05/28 05:55:15;;;;;;;5.70;1.50;;;;;;;23.43;28.09;100504.37;105540;1260;60413;-71
2023/05/28 05:58:05;;;;;;;6.40;1.50;;;;;;;24.05;26.48;100505.42;105488;1264;74081;-69
2023/05/28 06:00:54;;;;;;;7.40;1.30;;;;;;;24.39;26.09;100504.70;105631;1263;66465;-71
2023/05/28 06:03:42;;;;;;;6.30;1.80;;;;;;;24.75;25.32;100502.48;105563;1254;71418;-67
2023/05/28 06:07:06;;;;;;;6.30;1.80;;;;;;;25.30;24.92;100506.38;105557;1254;60431;-70
2023/05/28 06:10:04;;;;;;;6.00;1.60;;;;;;;25.66;23.95;100498.21;105618;1260;60428;-72
2023/05/28 06:12:55;;;;;;;7.80;1.60;;;;;;;25.94;23.49;100494.90;105767;1259;73725;-68
2023/05/28 06:15:45;;;;;;;6.60;1.40;;;;;;;25.93;22.99;100491.67;105508;1260;67913;-74
2023/05/28 06:18:33;;;;;;;6.00;1.90;;;;;;;25.54;23.17;100491.95;105556;1261;72532;-73
2023/05/28 06:21:24;;;;;;;6.20;1.50;;;;;;;25.76;23.17;100489.54;105630;1260;60435;-74
2023/05/28 06:24:12;;;;;;;7.60;1.70;;;;;;;26.13;22.93;100486.90;105609;1260;61980;-70
2023/05/28 06:27:03;;;;;;;8.60;1.60;;;;;;;26.25;22.42;100489.32;105667;1256;72603;-75
2023/05/28 06:29:53;;;;;;;7.30;1.30;;;;;;;26.26;22.15;100489.02;105693;1260;66589;-74
2023/05/28 06:32:43;;;;;;;6.80;1.40;;;;;;;26.48;22.18;100481.58;107133;1260;73147;-72
2023/05/28 06:35:33;;;;;;;5.80;1.40;;;;;;;26.30;21.60;100482.01;106675;1257;60347;-75
2023/05/28 06:38:21;;;;;;;6.20;1.40;;;;;;;26.18;21.90;100480.44;105896;1260;59856;-71
2023/05/28 06:41:10;;;;;;;7.10;1.60;;;;;;;26.77;21.81;100476.63;105582;1260;73520;-71
2023/05/28 06:44:06;;;;;;;6.00;1.30;;;;;;;27.36;21.05;100476.85;105658;1262;66809;-74
2023/05/28 06:47:06;;;;;;;6.60;1.40;;;;;;;27.74;20.47;100478.06;105690;1254;72820;-69
2023/05/28 06:49:55;;;;;;;5.80;1.40;;;;;;;27.78;19.90;100478.57;105592;1260;60527;-69
2023/05/28 06:52:44;;;;;;;6.40;1.50;;;;;;;28.14;19.89;100472.54;105611;1255;60414;-67
2023/05/28 06:55:32;;;;;;;7.50;1.40;;;;;;;28.73;19.33;100475.27;105801;1255;73899;-67
2023/05/28 06:58:40;;;;;;;8.70;1.60;;;;;;;29.53;18.87;100469.92;105683;1259;67830;-66
2023/05/28 07:01:48;;;;;;;7.10;1.30;;;;;;;30.07;18.09;100474.03;105763;1259;72729;-69
2023/05/28 07:04:55;;;;;;;8.20;1.60;;;;;;;30.25;18.17;100472.98;105730;1254;60533;-69
2023/05/28 07:07:55;;;;;;;7.50;1.50;;;;;;;30.11;17.92;100475.89;105620;1254;60611;-67
2023/05/28 07:10:44;;;;;;;5.90;1.30;;;;;;;30.42;17.56;100471.64;105602;1260;73884;-70
2023/05/28 07:13:33;;;;;;;6.00;1.40;;;;;;;30.66;17.54;100473.60;105704;1254;67200;-71
2023/05/28 07:16:22;;;;;;;6.10;1.50;;;;;;;30.78;17.20;100469.78;105752;1260;71078;-70
2023/05/28 07:19:11;;;;;;;8.50;1.30;;;;;;;31.05;17.18;100469.05;105604;1254;60466;-68
2023/05/28 07:21:59;;;;;;;5.50;1.30;;;;;;;31.56;16.85;100473.48;105619;1260;61089;-71
2023/05/28 07:24:47;;;;;;;5.70;1.20;;;;;;;31.64;16.28;100476.79;105894;1255;73886;-70
2023/05/28 07:27:36;;;;;;;7.40;1.50;;;;;;;31.58;16.23;100472.55;105697;1263;68496;-72
2023/05/28 07:30:25;;;;;;;5.30;1.20;;;;;;;31.45;15.99;100468.07;105292;1264;72936;-74
2023/05/28 07:33:16;;;;;;;7.50;1.40;;;;;;;31.57;16.12;100460.76;105366;1267;60434;-71
2023/05/28 07:36:08;;;;;;;5.90;1.30;;;;;;;31.69;15.96;100463.06;105267;1267;60990;-72
2023/05/28 07:38:58;;;;;;;5.50;1.30;;;;;;;31.66;15.88;100460.40;105660;1259;73733;-73
2023/05/28 07:41:47;;;;;;;6.20;1.30;;;;;;;31.07;16.02;100462.95;107210;1262;66299;-72
2023/05/28 07:44:43;;;;;;;5.50;1.20;;;;;;;31.16;16.17;100460.20;105328;1266;73496;-72
2023/05/28 07:47:33;;;;;;;6.40;1.60;;;;;;;31.56;16.03;100459.02;105232;1264;60530;-73
2023/05/28 07:50:24;;;;;;;7.50;1.40;;;;;;;31.74;15.38;100453.51;105289;1264;60510;-72
2023/05/28 07:53:52;;;;;;;7.70;1.30;;;;;;;31.28;16.02;100450.45;105664;1260;74680;-71
2023/05/28 07:56:42;;;;;;;5.90;1.40;;;;;;;31.71;16.14;100453.91;105424;1266;67184;-70
2023/05/28 07:59:37;;;;;;;5.80;1.30;;;;;;;32.10;15.55;100454.65;105304;1259;72532;-70
2023/05/28 08:02:25;;;;;;;5.40;1.30;;;;;;;32.14;15.38;100456.53;105795;1255;60559;-72
2023/05/28 08:05:14;;;;;;;6.30;1.40;;;;;;;31.79;15.36;100454.90;105682;1260;60356;-72
2023/05/28 08:08:02;;;;;;;6.80;1.40;;;;;;;32.01;15.15;100448.16;105783;1256;72288;-74
2023/05/28 08:10:51;;;;;;;5.40;1.30;;;;;;;32.41;15.24;100440.56;105691;1261;66576;-74
2023/05/28 08:13:41;;;;;;;5.30;1.50;;;;;;;32.52;15.31;100437.23;105764;1256;72654;-73
2023/05/28 08:16:30;;;;;;;8.10;1.50;;;;;;;32.94;15.01;100433.49;105727;1254;60636;-77
2023/05/28 08:19:43;;;;;;;7.00;1.70;;;;;;;33.27;14.65;100424.17;105990;1256;60445;-74
2023/05/28 08:23:00;;;;;;;6.20;1.50;;;;;;;33.43;14.49;100425.48;105803;1258;73832;-72
2023/05/28 08:25:49;;;;;;;6.60;1.40;;;;;;;33.68;14.03;100426.60;105878;1260;68925;-73
2023/05/28 08:28:40;;;;;;;8.10;1.50;;;;;;;33.86;14.03;100423.45;105654;1260;72851;-74
2023/05/28 08:31:29;;;;;;;5.60;1.30;;;;;;;33.73;14.14;100423.83;105615;1256;60488;-73
2023/05/28 08:34:31;;;;;;;6.00;1.30;;;;;;;33.27;14.32;100419.75;105655;1257;60357;-68
2023/05/28 08:37:20;;;;;;;6.30;1.50;;;;;;;32.60;14.56;100417.21;105827;1260;73829;-72
2023/05/28 08:40:28;;;;;;;7.50;1.70;;;;;;;32.57;14.61;100414.93;105906;1253;66769;-73
2023/05/28 08:43:16;;;;;;;6.20;1.60;;;;;;;32.82;15.03;100412.25;105866;1253;71744;-71
2023/05/28 08:46:05;;;;;;;8.50;1.80;;;;;;;32.75;15.03;100411.55;105750;1257;60451;-76
2023/05/28 08:49:00;;;;;;;5.20;1.40;;;;;;;32.30;15.11;100411.52;105802;1255;61062;-72
2023/05/28 08:51:53;;;;;;;7.50;1.70;;;;;;;31.89;15.48;100417.52;105702;1258;74342;-74
2023/05/28 08:54:43;;;;;;;8.40;1.50;;;;;;;32.22;15.65;100406.57;105718;1260;68048;-73
2023/05/28 08:57:33;;;;;;;6.70;1.50;;;;;;;32.29;15.52;100406.16;105746;1254;72667;-72
2023/05/28 09:00:23;;;;;;;6.90;1.70;;;;;;;32.18;15.69;100404.30;105604;1263;60463;-68
2023/05/28 09:03:33;;;;;;;8.00;1.40;;;;;;;31.98;15.71;100401.53;105741;1254;60428;-73
2023/05/28 09:06:31;;;;;;;6.70;1.50;;;;;;;31.85;15.98;100399.86;105734;1253;71785;-74
2023/05/28 09:09:20;;;;;;;6.10;1.50;;;;;;;32.08;15.77;100392.49;106044;1253;67932;-72
2023/05/28 09:12:20;;;;;;;8.00;1.90;;;;;;;32.38;15.42;100388.15;105806;1262;73700;-73
2023/05/28 09:15:10;;;;;;;8.00;1.80;;;;;;;32.72;15.66;100385.97;105678;1261;60486;-75
2023/05/28 09:18:01;;;;;;;6.00;1.50;;;;;;;33.02;15.27;100387.38;105724;1258;60439;-74
2023/05/28 09:20:50;;;;;;;6.00;1.40;;;;;;;33.11;15.17;100384.59;105830;1260;73606;-75
2023/05/28 09:23:45;;;;;;;8.30;1.60;;;;;;;32.82;15.07;100381.32;105597;1260;66282;-71
2023/05/28 09:26:50;;;;;;;5.50;1.40;;;;;;;32.33;15.49;100379.66;105809;1260;72723;-72
2023/05/28 09:29:49;;;;;;;7.20;1.70;;;;;;;32.00;15.80;100381.59;106164;1254;60440;-73
2023/05/28 09:32:38;;;;;;;5.50;1.40;;;;;;;32.00;16.15;100379.49;105704;1260;60517;-70
2023/05/28 09:35:31;;;;;;;6.70;1.90;;;;;;;32.16;15.71;100378.44;105802;1254;73526;-71
2023/05/28 09:38:24;;;;;;;7.30;1.40;;;;;;;32.06;16.07;100371.33;105804;1260;68887;-72
2023/05/28 09:41:19;;;;;;;5.80;1.50;;;;;;;32.52;15.68;100369.27;105985;1260;72363;-71
2023/05/28 09:44:10;;;;;;;6.60;1.80;;;;;;;33.02;15.64;100365.38;105870;1254;60451;-73
2023/05/28 09:46:59;;;;;;;6.40;1.80;;;;;;;33.28;15.07;100358.46;105924;1254;60549;-76
2023/05/28 09:49:50;;;;;;;7.30;1.50;;;;;;;33.04;15.08;100358.78;105838;1254;73921;-72
2023/05/28 09:52:43;;;;;;;6.10;1.60;;;;;;;33.07;14.87;100351.77;106111;1254;69461;-71
2023/05/28 09:55:34;;;;;;;6.20;1.90;;;;;;;33.17;15.15;100348.64;105787;1260;73729;-70
2023/05/28 09:58:31;;;;;;;8.20;1.60;;;;;;;33.01;15.14;100341.23;105562;1265;60489;-72
2023/05/28 10:01:25;;;;;;;6.40;1.40;;;;;;;32.17;15.37;100338.83;105857;1254;60470;-72
2023/05/28 10:04:18;;;;;;;6.00;1.60;;;;;;;31.23;16.06;100350.38;105817;1254;73990;-74
2023/05/28 10:07:10;;;;;;;7.40;1.50;;;;;;;31.15;16.46;100348.05;105799;1260;67996;-74
2023/05/28 10:10:01;;;;;;;8.20;1.90;;;;;;;31.25;16.44;100346.79;105619;1263;71400;-74
2023/05/28 10:12:53;;;;;;;6.20;1.50;;;;;;;31.25;16.49;100346.73;105390;1263;60520;-73
2023/05/28 10:15:42;;;;;;;6.70;1.90;;;;;;;31.00;16.60;100348.44;105530;1256;60485;-73
2023/05/28 10:18:31;;;;;;;6.80;1.40;;;;;;;31.10;16.57;100340.05;105650;1257;73900;-73
2023/05/28 10:21:22;;;;;;;6.20;1.50;;;;;;;31.55;16.47;100335.53;105619;1261;67584;-72
2023/05/28 10:24:13;;;;;;;10.70;3.20;;;;;;;32.22;15.75;100330.14;105210;1260;71846;-73
2023/05/28 10:27:07;;;;;;;8.20;1.80;;;;;;;32.55;15.60;100334.98;105394;1263;60516;-70
2023/05/28 10:29:56;;;;;;;6.40;1.70;;;;;;;32.79;15.32;100335.52;105308;1266;60402;-73
2023/05/28 10:32:45;;;;;;;6.50;1.50;;;;;;;32.98;15.10;100333.55;105462;1263;73877;-73
2023/05/28 10:35:35;;;;;;;6.40;1.50;;;;;;;32.54;15.24;100331.11;105414;1261;69114;-71
2023/05/28 10:38:24;;;;;;;9.90;1.60;;;;;;;32.23;15.64;100326.08;105194;1264;72277;-72
2023/05/28 10:41:22;;;;;;;6.90;1.80;;;;;;;32.29;15.60;100321.25;105480;1260;60539;-72
2023/05/28 10:44:11;;;;;;;8.50;1.80;;;;;;;31.86;15.52;100323.33;105367;1267;60530;-72
2023/05/28 10:47:05;;;;;;;6.10;1.70;;;;;;;31.69;15.56;100327.39;105414;1260;72612;-70
2023/05/28 10:50:08;;;;;;;5.80;1.60;;;;;;;31.20;16.00;100324.55;105451;1260;67371;-72
2023/05/28 10:53:12;;;;;;;5.90;1.60;;;;;;;30.87;16.30;100322.88;105580;1263;74284;-74
2023/05/28 10:56:02;;;;;;;7.40;1.60;;;;;;;30.82;16.07;100319.33;105538;1256;60458;-75
2023/05/28 10:58:50;;;;;;;7.20;1.80;;;;;;;30.99;16.55;100314.07;105574;1257;60924;-72
2023/05/28 11:01:38;;;;;;;9.10;1.80;;;;;;;31.23;16.17;100315.75;105536;1257;73673;-72
2023/05/28 11:04:33;;;;;;;6.90;1.80;;;;;;;31.41;16.09;100311.23;105579;1257;68117;-73
2023/05/28 11:07:38;;;;;;;7.50;1.90;;;;;;;31.07;16.22;100311.70;105650;1260;72592;-73
2023/05/28 11:10:28;;;;;;;7.60;1.80;;;;;;;31.05;16.72;100303.19;105687;1256;60432;-70
2023/05/28 11:13:19;;;;;;;7.30;1.70;;;;;;;30.95;16.76;100308.73;106107;1254;60435;-73
2023/05/28 11:16:11;;;;;;;8.70;1.60;;;;;;;30.10;17.45;100308.11;105941;1260;73602;-75
2023/05/28 11:19:04;;;;;;;6.10;1.70;;;;;;;29.95;17.96;100304.52;105657;1263;66512;-74
2023/05/28 11:21:55;;;;;;;6.60;1.90;;;;;;;29.63;17.81;100302.53;105996;1254;71049;-73
2023/05/28 11:25:04;;;;;;;6.40;1.70;;;;;;;29.36;18.20;100296.31;105778;1260;60572;-73
2023/05/28 11:27:53;;;;;;;6.00;1.50;;;;;;;28.66;18.78;100294.66;106202;1254;60434;-73
2023/05/28 11:30:42;;;;;;;6.00;1.70;;;;;;;28.17;19.00;100299.70;105768;1261;73891;-74
2023/05/28 11:33:30;;;;;;;6.30;1.70;;;;;;;27.61;19.57;100295.84;105852;1260;66407;-72
2023/05/28 11:36:20;;;;;;;6.70;1.90;;;;;;;27.40;20.07;100296.16;105661;1254;72672;-74
2023/05/28 11:39:09;;;;;;;7.40;1.80;;;;;;;26.98;20.31;100298.77;105846;1254;60407;-71
2023/05/28 11:41:57;;;;;;;6.70;1.70;;;;;;;26.41;21.05;100301.00;105748;1254;60458;-76
2023/05/28 11:44:48;;;;;;;7.90;1.90;;;;;;;25.44;21.64;100296.30;105766;1254;72310;-75
2023/05/28 11:47:37;;;;;;;6.80;1.70;;;;;;;25.10;22.42;100291.27;105908;1255;68070;-72
2023/05/28 11:50:26;;;;;;;6.60;1.80;;;;;;;25.14;23.09;100293.30;105954;1263;71451;-72
2023/05/28 11:53:14;;;;;;;6.70;1.90;;;;;;;25.16;22.53;100299.36;105785;1254;60452;-75
2023/05/28 11:56:03;;;;;;;7.30;2.00;;;;;;;25.23;24.19;100301.86;105735;1259;60524;-73
2023/05/28 11:58:54;;;;;;;9.50;1.90;;;;;;;25.28;26.01;100302.63;106027;1257;74026;-72
2023/05/28 12:01:45;;;;;;;6.90;1.80;;;;;;;25.15;26.18;100287.00;105496;1264;67912;-66
2023/05/28 12:04:33;;;;;;;6.40;1.80;;;;;;;24.91;26.49;100278.75;105465;1261;73345;-67
2023/05/28 12:07:21;;;;;;;6.90;1.90;;;;;;;24.68;26.60;100277.52;105500;1264;60422;-64
2023/05/28 12:10:13;;;;;;;6.70;2.00;;;;;;;24.42;26.85;100288.52;106394;1258;60359;-65
2023/05/28 12:13:02;;;;;;;8.90;1.90;;;;;;;24.17;27.04;100284.96;106441;1257;74557;-62
2023/05/28 12:15:51;;;;;;;7.80;1.90;;;;;;;24.02;27.32;100274.83;105678;1257;68462;-63
2023/05/28 12:18:42;;;;;;;7.90;2.40;;;;;;;23.91;27.76;100279.91;105319;1264;73604;-63
2023/05/28 12:21:35;;;;;;;6.80;2.30;;;;;;;23.73;27.36;100271.81;105338;1263;60576;-63
2023/05/28 12:24:27;;;;;;;7.90;2.10;;;;;;;23.45;27.60;100275.14;105250;1264;60404;-63
2023/05/28 12:27:16;;;;;;;6.20;1.70;;;;;;;23.22;27.80;100273.24;105453;1258;74290;-64
2023/05/28 12:30:07;;;;;;;9.80;1.90;;;;;;;23.06;28.42;100276.47;105286;1257;67814;-65
2023/05/28 12:32:56;;;;;;;7.20;2.00;;;;;;;22.99;28.48;100276.58;105487;1261;71926;-66
2023/05/28 12:35:46;;;;;;;10.30;1.80;;;;;;;23.01;28.64;100278.77;105283;1257;60470;-66
2023/05/28 12:38:34;;;;;;;5.90;1.90;;;;;;;22.97;28.41;100278.17;105248;1260;59796;-66
2023/05/28 12:41:22;;;;;;;6.00;1.70;;;;;;;22.82;28.50;100274.93;105974;1257;72240;-65
2023/05/28 12:44:11;;;;;;;8.80;2.00;;;;;;;22.74;28.37;100272.94;105552;1262;66799;-67
2023/05/28 12:47:00;;;;;;;7.80;2.10;;;;;;;22.53;28.75;100271.02;105563;1262;73893;-64
2023/05/28 12:49:48;;;;;;;7.40;1.90;;;;;;;22.41;29.16;100262.59;105484;1260;60792;-67
2023/05/28 12:52:36;;;;;;;6.40;1.90;;;;;;;22.34;29.66;100266.50;105558;1261;60432;-66
2023/05/28 12:55:25;;;;;;;7.60;2.00;;;;;;;22.39;29.80;100268.25;105685;1256;74946;-67
2023/05/28 12:58:15;;;;;;;7.20;1.90;;;;;;;22.52;29.75;100266.59;105614;1257;68754;-65
2023/05/28 13:01:03;;;;;;;6.20;2.00;;;;;;;22.62;29.48;100264.90;105588;1261;73288;-68
2023/05/28 13:03:52;;;;;;;6.60;1.90;;;;;;;22.53;29.32;100264.64;105296;1262;60368;-64
2023/05/28 13:06:42;;;;;;;9.50;2.00;;;;;;;22.43;29.38;100267.13;105503;1256;61021;-66
2023/05/28 13:09:30;;;;;;;8.60;2.10;;;;;;;22.30;29.87;100266.83;105433;1259;73899;-67